sensor_id;sensor_type;location;lat;lon;timestamp;P1;durP1;ratioP1;P2;durP2;ratioP2
57889;SDS011;43707;50.184;18.966;2024-02-26T00:02:06;7.00;;;4.20;;
57889;SDS011;43707;50.184;18.966;2024-02-26T00:04:32;8.50;;;4.20;;
57889;SDS011;43707;50.184;18.966;2024-02-26T00:06:57;7.40;;;4.00;;
57889;SDS011;43707;50.184;18.966;2024-02-26T00:09:23;4.50;;;3.00;;
57889;SDS011;43707;50.184;18.966;2024-02-26T00:11:48;5.30;;;3.50;;
57889;SDS011;43707;50.184;18.966;2024-02-26T00:14:14;3.80;;;2.80;;
57889;SDS011;43707;50.184;18.966;2024-02-26T00:16:40;5.00;;;3.80;;
57889;SDS011;43707;50.184;18.966;2024-02-26T00:19:06;7.00;;;4.50;;
57889;SDS011;43707;50.184;18.966;2024-02-26T00:21:32;5.20;;;3.80;;
57889;SDS011;43707;50.184;18.966;2024-02-26T00:23:57;6.90;;;4.40;;
57889;SDS011;43707;50.184;18.966;2024-02-26T00:26:23;4.60;;;3.10;;
57889;SDS011;43707;50.184;18.966;2024-02-26T00:28:48;5.80;;;4.00;;
57889;SDS011;43707;50.184;18.966;2024-02-26T00:31:14;5.50;;;3.80;;
57889;SDS011;43707;50.184;18.966;2024-02-26T00:33:39;5.10;;;3.70;;
57889;SDS011;43707;50.184;18.966;2024-02-26T00:36:05;7.20;;;3.90;;
57889;SDS011;43707;50.184;18.966;2024-02-26T00:38:31;5.40;;;3.90;;
57889;SDS011;43707;50.184;18.966;2024-02-26T00:40:56;6.30;;;4.00;;
57889;SDS011;43707;50.184;18.966;2024-02-26T00:43:22;5.80;;;3.90;;
57889;SDS011;43707;50.184;18.966;2024-02-26T00:45:47;7.90;;;4.60;;
57889;SDS011;43707;50.184;18.966;2024-02-26T00:48:13;5.30;;;3.40;;
57889;SDS011;43707;50.184;18.966;2024-02-26T00:50:39;6.10;;;3.50;;
57889;SDS011;43707;50.184;18.966;2024-02-26T00:53:05;5.60;;;3.70;;
57889;SDS011;43707;50.184;18.966;2024-02-26T00:55:30;5.10;;;3.80;;
57889;SDS011;43707;50.184;18.966;2024-02-26T00:57:56;4.90;;;3.00;;
57889;SDS011;43707;50.184;18.966;2024-02-26T01:00:22;3.90;;;2.90;;
57889;SDS011;43707;50.184;18.966;2024-02-26T01:02:47;3.90;;;2.70;;
57889;SDS011;43707;50.184;18.966;2024-02-26T01:05:13;4.20;;;2.90;;
57889;SDS011;43707;50.184;18.966;2024-02-26T01:07:39;4.60;;;3.30;;
57889;SDS011;43707;50.184;18.966;2024-02-26T01:10:05;3.70;;;2.70;;
57889;SDS011;43707;50.184;18.966;2024-02-26T01:15:54;4.80;;;2.90;;
57889;SDS011;43707;50.184;18.966;2024-02-26T01:18:19;3.40;;;2.30;;
57889;SDS011;43707;50.184;18.966;2024-02-26T01:20:45;3.90;;;3.00;;
57889;SDS011;43707;50.184;18.966;2024-02-26T01:23:10;4.90;;;2.40;;
57889;SDS011;43707;50.184;18.966;2024-02-26T01:25:35;3.80;;;2.60;;
57889;SDS011;43707;50.184;18.966;2024-02-26T01:28:01;3.50;;;2.70;;
57889;SDS011;43707;50.184;18.966;2024-02-26T01:30:28;4.60;;;2.00;;
57889;SDS011;43707;50.184;18.966;2024-02-26T01:32:53;4.10;;;2.40;;
57889;SDS011;43707;50.184;18.966;2024-02-26T01:35:19;2.90;;;2.00;;
57889;SDS011;43707;50.184;18.966;2024-02-26T01:37:45;2.90;;;2.30;;
57889;SDS011;43707;50.184;18.966;2024-02-26T01:40:10;3.60;;;2.70;;
57889;SDS011;43707;50.184;18.966;2024-02-26T01:42:40;3.20;;;2.20;;
57889;SDS011;43707;50.184;18.966;2024-02-26T01:45:07;4.40;;;1.90;;
57889;SDS011;43707;50.184;18.966;2024-02-26T01:47:41;3.30;;;2.20;;
57889;SDS011;43707;50.184;18.966;2024-02-26T01:50:06;6.40;;;2.30;;
57889;SDS011;43707;50.184;18.966;2024-02-26T01:52:32;5.70;;;2.50;;
57889;SDS011;43707;50.184;18.966;2024-02-26T01:54:58;5.50;;;3.00;;
57889;SDS011;43707;50.184;18.966;2024-02-26T01:57:26;5.90;;;2.40;;
57889;SDS011;43707;50.184;18.966;2024-02-26T01:59:53;4.00;;;2.50;;
57889;SDS011;43707;50.184;18.966;2024-02-26T02:02:18;5.10;;;2.30;;
57889;SDS011;43707;50.184;18.966;2024-02-26T02:04:44;3.60;;;2.80;;
57889;SDS011;43707;50.184;18.966;2024-02-26T02:07:09;3.40;;;2.30;;
57889;SDS011;43707;50.184;18.966;2024-02-26T02:09:35;2.90;;;2.20;;
57889;SDS011;43707;50.184;18.966;2024-02-26T02:12:01;3.20;;;1.70;;
57889;SDS011;43707;50.184;18.966;2024-02-26T02:14:27;3.40;;;2.30;;
57889;SDS011;43707;50.184;18.966;2024-02-26T02:16:52;3.40;;;2.50;;
57889;SDS011;43707;50.184;18.966;2024-02-26T02:19:18;3.00;;;1.90;;
57889;SDS011;43707;50.184;18.966;2024-02-26T02:21:43;3.60;;;2.10;;
57889;SDS011;43707;50.184;18.966;2024-02-26T02:24:09;3.40;;;2.30;;
57889;SDS011;43707;50.184;18.966;2024-02-26T02:26:34;3.00;;;2.30;;
57889;SDS011;43707;50.184;18.966;2024-02-26T02:29:00;3.00;;;2.10;;
57889;SDS011;43707;50.184;18.966;2024-02-26T02:31:25;3.30;;;2.20;;
57889;SDS011;43707;50.184;18.966;2024-02-26T02:33:51;3.40;;;2.40;;
57889;SDS011;43707;50.184;18.966;2024-02-26T02:36:17;2.20;;;2.00;;
57889;SDS011;43707;50.184;18.966;2024-02-26T02:38:49;3.50;;;2.40;;
57889;SDS011;43707;50.184;18.966;2024-02-26T02:41:16;3.50;;;2.10;;
57889;SDS011;43707;50.184;18.966;2024-02-26T02:43:41;3.90;;;3.00;;
57889;SDS011;43707;50.184;18.966;2024-02-26T02:46:06;13.90;;;3.10;;
57889;SDS011;43707;50.184;18.966;2024-02-26T02:48:32;3.40;;;2.20;;
57889;SDS011;43707;50.184;18.966;2024-02-26T02:50:57;4.00;;;2.90;;
57889;SDS011;43707;50.184;18.966;2024-02-26T02:53:23;4.40;;;2.80;;
57889;SDS011;43707;50.184;18.966;2024-02-26T02:55:48;5.80;;;3.10;;
57889;SDS011;43707;50.184;18.966;2024-02-26T02:58:14;4.30;;;2.80;;
57889;SDS011;43707;50.184;18.966;2024-02-26T03:00:39;3.90;;;2.50;;
57889;SDS011;43707;50.184;18.966;2024-02-26T03:03:05;4.20;;;2.90;;
57889;SDS011;43707;50.184;18.966;2024-02-26T03:05:31;3.30;;;2.50;;
57889;SDS011;43707;50.184;18.966;2024-02-26T03:07:56;6.40;;;2.60;;
57889;SDS011;43707;50.184;18.966;2024-02-26T03:10:22;3.80;;;2.40;;
57889;SDS011;43707;50.184;18.966;2024-02-26T03:12:48;3.10;;;2.30;;
57889;SDS011;43707;50.184;18.966;2024-02-26T03:15:14;3.00;;;2.30;;
57889;SDS011;43707;50.184;18.966;2024-02-26T03:17:40;4.00;;;2.40;;
57889;SDS011;43707;50.184;18.966;2024-02-26T03:20:06;3.90;;;2.10;;
57889;SDS011;43707;50.184;18.966;2024-02-26T03:22:33;3.20;;;1.90;;
57889;SDS011;43707;50.184;18.966;2024-02-26T03:24:59;3.30;;;2.30;;
57889;SDS011;43707;50.184;18.966;2024-02-26T03:27:24;3.90;;;2.60;;
57889;SDS011;43707;50.184;18.966;2024-02-26T03:29:50;3.40;;;2.20;;
57889;SDS011;43707;50.184;18.966;2024-02-26T03:32:16;3.10;;;2.20;;
57889;SDS011;43707;50.184;18.966;2024-02-26T03:34:41;3.20;;;2.20;;
57889;SDS011;43707;50.184;18.966;2024-02-26T03:37:07;2.90;;;1.60;;
57889;SDS011;43707;50.184;18.966;2024-02-26T03:39:34;2.80;;;1.60;;
57889;SDS011;43707;50.184;18.966;2024-02-26T03:42:00;3.00;;;1.80;;
57889;SDS011;43707;50.184;18.966;2024-02-26T03:44:25;2.90;;;2.00;;
57889;SDS011;43707;50.184;18.966;2024-02-26T03:46:50;3.60;;;2.20;;
57889;SDS011;43707;50.184;18.966;2024-02-26T03:49:16;3.40;;;2.00;;
57889;SDS011;43707;50.184;18.966;2024-02-26T03:51:41;2.80;;;1.50;;
57889;SDS011;43707;50.184;18.966;2024-02-26T03:54:07;2.60;;;1.80;;
57889;SDS011;43707;50.184;18.966;2024-02-26T03:56:32;2.70;;;1.80;;
57889;SDS011;43707;50.184;18.966;2024-02-26T03:58:58;3.10;;;1.90;;
57889;SDS011;43707;50.184;18.966;2024-02-26T04:01:25;2.40;;;1.90;;
57889;SDS011;43707;50.184;18.966;2024-02-26T04:03:50;2.90;;;2.00;;
57889;SDS011;43707;50.184;18.966;2024-02-26T04:06:18;2.10;;;1.60;;
57889;SDS011;43707;50.184;18.966;2024-02-26T04:08:48;2.70;;;1.70;;
57889;SDS011;43707;50.184;18.966;2024-02-26T04:11:14;3.20;;;1.90;;
57889;SDS011;43707;50.184;18.966;2024-02-26T04:13:44;3.40;;;2.40;;
57889;SDS011;43707;50.184;18.966;2024-02-26T04:16:14;2.70;;;2.10;;
57889;SDS011;43707;50.184;18.966;2024-02-26T04:18:41;3.20;;;2.30;;
57889;SDS011;43707;50.184;18.966;2024-02-26T04:21:07;3.00;;;1.80;;
57889;SDS011;43707;50.184;18.966;2024-02-26T04:23:33;3.50;;;1.90;;
57889;SDS011;43707;50.184;18.966;2024-02-26T04:25:58;3.90;;;2.60;;
57889;SDS011;43707;50.184;18.966;2024-02-26T04:28:24;3.80;;;2.50;;
57889;SDS011;43707;50.184;18.966;2024-02-26T04:30:54;3.80;;;2.10;;
57889;SDS011;43707;50.184;18.966;2024-02-26T04:33:20;3.60;;;2.40;;
57889;SDS011;43707;50.184;18.966;2024-02-26T04:35:45;3.30;;;2.30;;
57889;SDS011;43707;50.184;18.966;2024-02-26T04:38:11;3.10;;;1.90;;
57889;SDS011;43707;50.184;18.966;2024-02-26T04:40:36;4.00;;;2.10;;
57889;SDS011;43707;50.184;18.966;2024-02-26T04:43:02;3.40;;;2.20;;
57889;SDS011;43707;50.184;18.966;2024-02-26T04:45:27;3.70;;;2.40;;
57889;SDS011;43707;50.184;18.966;2024-02-26T04:47:53;5.90;;;1.90;;
57889;SDS011;43707;50.184;18.966;2024-02-26T04:50:19;4.30;;;2.20;;
57889;SDS011;43707;50.184;18.966;2024-02-26T04:52:44;3.90;;;2.00;;
57889;SDS011;43707;50.184;18.966;2024-02-26T04:55:10;3.60;;;2.40;;
57889;SDS011;43707;50.184;18.966;2024-02-26T04:57:36;2.60;;;1.90;;
57889;SDS011;43707;50.184;18.966;2024-02-26T05:00:01;3.20;;;2.20;;
57889;SDS011;43707;50.184;18.966;2024-02-26T05:02:28;4.30;;;2.30;;
57889;SDS011;43707;50.184;18.966;2024-02-26T05:04:55;2.90;;;2.00;;
57889;SDS011;43707;50.184;18.966;2024-02-26T05:07:20;3.20;;;1.80;;
57889;SDS011;43707;50.184;18.966;2024-02-26T05:09:46;2.70;;;2.00;;
57889;SDS011;43707;50.184;18.966;2024-02-26T05:12:11;3.50;;;2.00;;
57889;SDS011;43707;50.184;18.966;2024-02-26T05:14:37;2.20;;;1.60;;
57889;SDS011;43707;50.184;18.966;2024-02-26T05:17:02;3.60;;;1.90;;
57889;SDS011;43707;50.184;18.966;2024-02-26T05:19:28;2.50;;;1.90;;
57889;SDS011;43707;50.184;18.966;2024-02-26T05:21:54;2.50;;;1.70;;
57889;SDS011;43707;50.184;18.966;2024-02-26T05:24:19;2.30;;;1.30;;
57889;SDS011;43707;50.184;18.966;2024-02-26T05:26:47;2.30;;;1.70;;
57889;SDS011;43707;50.184;18.966;2024-02-26T05:29:13;2.00;;;1.40;;
57889;SDS011;43707;50.184;18.966;2024-02-26T05:31:39;2.40;;;1.80;;
57889;SDS011;43707;50.184;18.966;2024-02-26T05:34:04;1.60;;;1.10;;
57889;SDS011;43707;50.184;18.966;2024-02-26T05:36:30;2.80;;;1.90;;
57889;SDS011;43707;50.184;18.966;2024-02-26T05:38:58;2.10;;;1.60;;
57889;SDS011;43707;50.184;18.966;2024-02-26T05:41:25;2.20;;;1.50;;
57889;SDS011;43707;50.184;18.966;2024-02-26T05:43:52;1.90;;;1.30;;
57889;SDS011;43707;50.184;18.966;2024-02-26T05:46:18;1.80;;;1.30;;
57889;SDS011;43707;50.184;18.966;2024-02-26T05:48:44;1.70;;;1.30;;
57889;SDS011;43707;50.184;18.966;2024-02-26T05:51:11;2.50;;;1.50;;
57889;SDS011;43707;50.184;18.966;2024-02-26T05:53:37;1.90;;;1.20;;
57889;SDS011;43707;50.184;18.966;2024-02-26T05:56:02;1.70;;;1.00;;
57889;SDS011;43707;50.184;18.966;2024-02-26T05:58:29;2.60;;;1.10;;
57889;SDS011;43707;50.184;18.966;2024-02-26T06:00:54;1.50;;;0.90;;
57889;SDS011;43707;50.184;18.966;2024-02-26T06:03:20;0.90;;;0.70;;
57889;SDS011;43707;50.184;18.966;2024-02-26T06:05:45;1.60;;;1.00;;
57889;SDS011;43707;50.184;18.966;2024-02-26T06:08:11;2.20;;;1.20;;
57889;SDS011;43707;50.184;18.966;2024-02-26T06:10:36;1.80;;;1.30;;
57889;SDS011;43707;50.184;18.966;2024-02-26T06:13:02;2.20;;;1.60;;
57889;SDS011;43707;50.184;18.966;2024-02-26T06:15:27;1.50;;;1.40;;
57889;SDS011;43707;50.184;18.966;2024-02-26T06:17:53;3.10;;;1.60;;
57889;SDS011;43707;50.184;18.966;2024-02-26T06:20:18;2.40;;;1.70;;
57889;SDS011;43707;50.184;18.966;2024-02-26T06:22:44;7.10;;;1.80;;
57889;SDS011;43707;50.184;18.966;2024-02-26T06:25:10;2.20;;;1.60;;
57889;SDS011;43707;50.184;18.966;2024-02-26T06:27:35;2.80;;;1.90;;
57889;SDS011;43707;50.184;18.966;2024-02-26T06:30:01;1.80;;;1.70;;
57889;SDS011;43707;50.184;18.966;2024-02-26T06:32:27;2.70;;;1.90;;
57889;SDS011;43707;50.184;18.966;2024-02-26T06:34:54;2.40;;;1.80;;
57889;SDS011;43707;50.184;18.966;2024-02-26T06:37:19;2.30;;;1.80;;
57889;SDS011;43707;50.184;18.966;2024-02-26T06:39:45;2.10;;;1.70;;
57889;SDS011;43707;50.184;18.966;2024-02-26T06:42:10;1.70;;;1.00;;
57889;SDS011;43707;50.184;18.966;2024-02-26T06:44:36;1.30;;;1.10;;
57889;SDS011;43707;50.184;18.966;2024-02-26T06:47:01;29.60;;;2.50;;
57889;SDS011;43707;50.184;18.966;2024-02-26T06:49:27;12.50;;;2.10;;
57889;SDS011;43707;50.184;18.966;2024-02-26T06:51:53;2.90;;;2.10;;
57889;SDS011;43707;50.184;18.966;2024-02-26T06:54:18;4.00;;;2.20;;
57889;SDS011;43707;50.184;18.966;2024-02-26T06:56:44;2.70;;;2.10;;
57889;SDS011;43707;50.184;18.966;2024-02-26T06:59:10;3.50;;;1.80;;
57889;SDS011;43707;50.184;18.966;2024-02-26T07:01:35;3.40;;;1.80;;
57889;SDS011;43707;50.184;18.966;2024-02-26T07:04:01;2.30;;;1.90;;
57889;SDS011;43707;50.184;18.966;2024-02-26T07:06:27;2.20;;;1.50;;
57889;SDS011;43707;50.184;18.966;2024-02-26T07:08:52;5.40;;;2.30;;
57889;SDS011;43707;50.184;18.966;2024-02-26T07:11:18;3.70;;;1.60;;
57889;SDS011;43707;50.184;18.966;2024-02-26T07:13:47;2.30;;;1.70;;
57889;SDS011;43707;50.184;18.966;2024-02-26T07:16:14;2.60;;;1.50;;
57889;SDS011;43707;50.184;18.966;2024-02-26T07:18:40;5.10;;;2.20;;
57889;SDS011;43707;50.184;18.966;2024-02-26T07:21:06;2.50;;;1.90;;
57889;SDS011;43707;50.184;18.966;2024-02-26T07:23:31;2.40;;;1.90;;
57889;SDS011;43707;50.184;18.966;2024-02-26T07:25:57;2.90;;;2.00;;
57889;SDS011;43707;50.184;18.966;2024-02-26T07:28:23;2.70;;;2.00;;
57889;SDS011;43707;50.184;18.966;2024-02-26T07:30:49;2.70;;;1.80;;
57889;SDS011;43707;50.184;18.966;2024-02-26T07:33:14;3.30;;;1.80;;
57889;SDS011;43707;50.184;18.966;2024-02-26T07:35:40;1.60;;;1.40;;
57889;SDS011;43707;50.184;18.966;2024-02-26T07:38:05;2.60;;;1.80;;
57889;SDS011;43707;50.184;18.966;2024-02-26T07:40:31;1.60;;;1.20;;
57889;SDS011;43707;50.184;18.966;2024-02-26T07:42:56;2.60;;;1.50;;
57889;SDS011;43707;50.184;18.966;2024-02-26T07:45:22;8.40;;;1.80;;
57889;SDS011;43707;50.184;18.966;2024-02-26T07:47:47;1.80;;;1.30;;
57889;SDS011;43707;50.184;18.966;2024-02-26T07:50:13;2.30;;;1.20;;
57889;SDS011;43707;50.184;18.966;2024-02-26T07:52:38;1.80;;;1.20;;
57889;SDS011;43707;50.184;18.966;2024-02-26T07:55:05;1.70;;;1.10;;
57889;SDS011;43707;50.184;18.966;2024-02-26T07:57:32;1.40;;;1.00;;
57889;SDS011;43707;50.184;18.966;2024-02-26T07:59:59;1.00;;;0.70;;
57889;SDS011;43707;50.184;18.966;2024-02-26T08:02:25;1.20;;;0.90;;
57889;SDS011;43707;50.184;18.966;2024-02-26T08:04:50;1.30;;;0.70;;
57889;SDS011;43707;50.184;18.966;2024-02-26T08:07:16;1.10;;;0.80;;
57889;SDS011;43707;50.184;18.966;2024-02-26T08:09:41;0.80;;;0.70;;
57889;SDS011;43707;50.184;18.966;2024-02-26T08:12:07;0.60;;;0.60;;
57889;SDS011;43707;50.184;18.966;2024-02-26T08:14:33;1.00;;;0.60;;
57889;SDS011;43707;50.184;18.966;2024-02-26T08:16:58;0.80;;;0.60;;
57889;SDS011;43707;50.184;18.966;2024-02-26T08:19:24;0.90;;;0.60;;
57889;SDS011;43707;50.184;18.966;2024-02-26T08:21:50;1.20;;;0.60;;
57889;SDS011;43707;50.184;18.966;2024-02-26T08:24:16;0.50;;;0.30;;
57889;SDS011;43707;50.184;18.966;2024-02-26T08:26:42;0.70;;;0.40;;
57889;SDS011;43707;50.184;18.966;2024-02-26T08:29:07;0.50;;;0.30;;
57889;SDS011;43707;50.184;18.966;2024-02-26T08:31:33;0.60;;;0.40;;
57889;SDS011;43707;50.184;18.966;2024-02-26T08:33:58;0.50;;;0.40;;
57889;SDS011;43707;50.184;18.966;2024-02-26T08:36:25;0.70;;;0.40;;
57889;SDS011;43707;50.184;18.966;2024-02-26T08:38:51;0.30;;;0.30;;
57889;SDS011;43707;50.184;18.966;2024-02-26T08:41:16;0.50;;;0.50;;
57889;SDS011;43707;50.184;18.966;2024-02-26T08:43:42;0.50;;;0.30;;
57889;SDS011;43707;50.184;18.966;2024-02-26T08:46:10;0.60;;;0.40;;
57889;SDS011;43707;50.184;18.966;2024-02-26T08:48:38;0.50;;;0.40;;
57889;SDS011;43707;50.184;18.966;2024-02-26T08:51:07;1.20;;;0.40;;
57889;SDS011;43707;50.184;18.966;2024-02-26T08:53:33;0.30;;;0.30;;
57889;SDS011;43707;50.184;18.966;2024-02-26T08:55:59;0.50;;;0.40;;
57889;SDS011;43707;50.184;18.966;2024-02-26T08:58:25;0.50;;;0.30;;
57889;SDS011;43707;50.184;18.966;2024-02-26T09:00:52;0.90;;;0.30;;
57889;SDS011;43707;50.184;18.966;2024-02-26T09:03:18;0.40;;;0.30;;
57889;SDS011;43707;50.184;18.966;2024-02-26T09:05:43;0.50;;;0.40;;
57889;SDS011;43707;50.184;18.966;2024-02-26T09:08:09;0.20;;;0.10;;
57889;SDS011;43707;50.184;18.966;2024-02-26T09:10:34;0.20;;;0.20;;
57889;SDS011;43707;50.184;18.966;2024-02-26T09:12:59;0.30;;;0.20;;
57889;SDS011;43707;50.184;18.966;2024-02-26T09:15:25;0.30;;;0.30;;
57889;SDS011;43707;50.184;18.966;2024-02-26T09:17:50;0.20;;;0.20;;
57889;SDS011;43707;50.184;18.966;2024-02-26T09:20:17;0.30;;;0.30;;
57889;SDS011;43707;50.184;18.966;2024-02-26T09:22:46;0.30;;;0.30;;
57889;SDS011;43707;50.184;18.966;2024-02-26T09:25:13;0.20;;;0.20;;
57889;SDS011;43707;50.184;18.966;2024-02-26T09:27:41;0.90;;;0.30;;
57889;SDS011;43707;50.184;18.966;2024-02-26T09:30:10;0.30;;;0.30;;
57889;SDS011;43707;50.184;18.966;2024-02-26T09:32:37;0.20;;;0.20;;
57889;SDS011;43707;50.184;18.966;2024-02-26T09:35:03;0.60;;;0.30;;
57889;SDS011;43707;50.184;18.966;2024-02-26T09:37:29;1.00;;;0.40;;
57889;SDS011;43707;50.184;18.966;2024-02-26T09:39:54;0.20;;;0.20;;
57889;SDS011;43707;50.184;18.966;2024-02-26T09:42:20;0.40;;;0.40;;
57889;SDS011;43707;50.184;18.966;2024-02-26T09:44:45;0.20;;;0.20;;
57889;SDS011;43707;50.184;18.966;2024-02-26T09:47:11;1.80;;;0.20;;
57889;SDS011;43707;50.184;18.966;2024-02-26T09:49:45;0.10;;;0.10;;
57889;SDS011;43707;50.184;18.966;2024-02-26T09:52:11;0.30;;;0.30;;
57889;SDS011;43707;50.184;18.966;2024-02-26T09:54:37;0.20;;;0.20;;
57889;SDS011;43707;50.184;18.966;2024-02-26T09:57:03;0.20;;;0.20;;
57889;SDS011;43707;50.184;18.966;2024-02-26T09:59:38;0.50;;;0.20;;
57889;SDS011;43707;50.184;18.966;2024-02-26T10:02:09;0.30;;;0.30;;
57889;SDS011;43707;50.184;18.966;2024-02-26T10:04:37;0.30;;;0.20;;
57889;SDS011;43707;50.184;18.966;2024-02-26T10:07:04;0.20;;;0.20;;
57889;SDS011;43707;50.184;18.966;2024-02-26T10:09:32;0.20;;;0.20;;
57889;SDS011;43707;50.184;18.966;2024-02-26T10:11:58;0.90;;;0.20;;
57889;SDS011;43707;50.184;18.966;2024-02-26T10:14:24;0.10;;;0.10;;
57889;SDS011;43707;50.184;18.966;2024-02-26T10:16:50;0.10;;;0.10;;
57889;SDS011;43707;50.184;18.966;2024-02-26T10:19:28;0.20;;;0.20;;
57889;SDS011;43707;50.184;18.966;2024-02-26T10:21:59;0.30;;;0.20;;
57889;SDS011;43707;50.184;18.966;2024-02-26T10:24:26;0.20;;;0.20;;
57889;SDS011;43707;50.184;18.966;2024-02-26T10:26:52;0.20;;;0.20;;
57889;SDS011;43707;50.184;18.966;2024-02-26T10:29:19;0.70;;;0.40;;
57889;SDS011;43707;50.184;18.966;2024-02-26T10:31:45;0.50;;;0.20;;
57889;SDS011;43707;50.184;18.966;2024-02-26T10:34:10;0.60;;;0.20;;
57889;SDS011;43707;50.184;18.966;2024-02-26T10:36:36;0.60;;;0.40;;
57889;SDS011;43707;50.184;18.966;2024-02-26T10:39:04;0.20;;;0.10;;
57889;SDS011;43707;50.184;18.966;2024-02-26T10:41:30;0.30;;;0.30;;
57889;SDS011;43707;50.184;18.966;2024-02-26T10:43:57;0.40;;;0.20;;
57889;SDS011;43707;50.184;18.966;2024-02-26T10:46:22;0.20;;;0.20;;
57889;SDS011;43707;50.184;18.966;2024-02-26T10:48:51;0.50;;;0.20;;
57889;SDS011;43707;50.184;18.966;2024-02-26T10:51:17;0.50;;;0.30;;
57889;SDS011;43707;50.184;18.966;2024-02-26T10:53:46;0.80;;;0.20;;
57889;SDS011;43707;50.184;18.966;2024-02-26T10:56:13;0.40;;;0.20;;
57889;SDS011;43707;50.184;18.966;2024-02-26T10:58:40;0.40;;;0.20;;
57889;SDS011;43707;50.184;18.966;2024-02-26T11:01:06;0.30;;;0.20;;
57889;SDS011;43707;50.184;18.966;2024-02-26T11:03:32;0.50;;;0.20;;
57889;SDS011;43707;50.184;18.966;2024-02-26T11:06:00;1.50;;;0.20;;
57889;SDS011;43707;50.184;18.966;2024-02-26T11:08:26;0.40;;;0.20;;
57889;SDS011;43707;50.184;18.966;2024-02-26T11:10:53;0.20;;;0.20;;
57889;SDS011;43707;50.184;18.966;2024-02-26T11:13:19;0.30;;;0.20;;
57889;SDS011;43707;50.184;18.966;2024-02-26T11:15:48;0.10;;;0.10;;
57889;SDS011;43707;50.184;18.966;2024-02-26T11:18:17;0.10;;;0.10;;
57889;SDS011;43707;50.184;18.966;2024-02-26T11:20:44;0.10;;;0.10;;
57889;SDS011;43707;50.184;18.966;2024-02-26T11:23:11;0.20;;;0.20;;
57889;SDS011;43707;50.184;18.966;2024-02-26T11:25:36;0.40;;;0.20;;
57889;SDS011;43707;50.184;18.966;2024-02-26T11:28:04;1.00;;;0.20;;
57889;SDS011;43707;50.184;18.966;2024-02-26T11:30:32;0.30;;;0.20;;
57889;SDS011;43707;50.184;18.966;2024-02-26T11:33:03;0.10;;;0.10;;
57889;SDS011;43707;50.184;18.966;2024-02-26T11:35:31;0.20;;;0.20;;
57889;SDS011;43707;50.184;18.966;2024-02-26T11:37:57;0.30;;;0.20;;
57889;SDS011;43707;50.184;18.966;2024-02-26T11:40:23;0.40;;;0.10;;
57889;SDS011;43707;50.184;18.966;2024-02-26T11:42:50;0.20;;;0.20;;
57889;SDS011;43707;50.184;18.966;2024-02-26T11:48:12;0.30;;;0.20;;
57889;SDS011;43707;50.184;18.966;2024-02-26T11:50:42;0.20;;;0.20;;
57889;SDS011;43707;50.184;18.966;2024-02-26T11:53:28;0.10;;;0.10;;
57889;SDS011;43707;50.184;18.966;2024-02-26T12:02:06;0.10;;;0.10;;
57889;SDS011;43707;50.184;18.966;2024-02-26T12:04:32;0.10;;;0.10;;
57889;SDS011;43707;50.184;18.966;2024-02-26T12:07:01;0.10;;;0.10;;
57889;SDS011;43707;50.184;18.966;2024-02-26T12:09:30;0.10;;;0.10;;
57889;SDS011;43707;50.184;18.966;2024-02-26T12:11:56;0.30;;;0.20;;
57889;SDS011;43707;50.184;18.966;2024-02-26T12:14:25;0.20;;;0.20;;
57889;SDS011;43707;50.184;18.966;2024-02-26T12:16:51;0.20;;;0.20;;
57889;SDS011;43707;50.184;18.966;2024-02-26T12:19:17;0.20;;;0.10;;
57889;SDS011;43707;50.184;18.966;2024-02-26T12:21:42;0.40;;;0.10;;
57889;SDS011;43707;50.184;18.966;2024-02-26T12:24:13;0.40;;;0.20;;
57889;SDS011;43707;50.184;18.966;2024-02-26T12:26:41;0.50;;;0.20;;
57889;SDS011;43707;50.184;18.966;2024-02-26T12:29:07;0.30;;;0.30;;
57889;SDS011;43707;50.184;18.966;2024-02-26T12:31:33;0.10;;;0.10;;
57889;SDS011;43707;50.184;18.966;2024-02-26T12:34:02;0.20;;;0.20;;
57889;SDS011;43707;50.184;18.966;2024-02-26T12:36:28;0.20;;;0.20;;
57889;SDS011;43707;50.184;18.966;2024-02-26T12:38:54;0.10;;;0.10;;
57889;SDS011;43707;50.184;18.966;2024-02-26T12:41:20;0.20;;;0.20;;
57889;SDS011;43707;50.184;18.966;2024-02-26T12:43:46;0.20;;;0.10;;
57889;SDS011;43707;50.184;18.966;2024-02-26T12:46:11;0.20;;;0.20;;
57889;SDS011;43707;50.184;18.966;2024-02-26T12:48:38;0.20;;;0.20;;
57889;SDS011;43707;50.184;18.966;2024-02-26T12:51:04;0.50;;;0.10;;
57889;SDS011;43707;50.184;18.966;2024-02-26T12:53:31;0.50;;;0.40;;
57889;SDS011;43707;50.184;18.966;2024-02-26T12:55:57;0.20;;;0.20;;
57889;SDS011;43707;50.184;18.966;2024-02-26T12:58:23;0.20;;;0.20;;
57889;SDS011;43707;50.184;18.966;2024-02-26T13:00:53;0.20;;;0.20;;
57889;SDS011;43707;50.184;18.966;2024-02-26T13:03:19;0.20;;;0.10;;
57889;SDS011;43707;50.184;18.966;2024-02-26T13:05:46;0.20;;;0.20;;
57889;SDS011;43707;50.184;18.966;2024-02-26T13:08:18;0.20;;;0.20;;
57889;SDS011;43707;50.184;18.966;2024-02-26T13:10:45;0.20;;;0.20;;
57889;SDS011;43707;50.184;18.966;2024-02-26T13:13:12;0.10;;;0.10;;
57889;SDS011;43707;50.184;18.966;2024-02-26T13:15:40;0.20;;;0.10;;
57889;SDS011;43707;50.184;18.966;2024-02-26T13:18:09;0.20;;;0.20;;
57889;SDS011;43707;50.184;18.966;2024-02-26T13:20:35;0.20;;;0.20;;
57889;SDS011;43707;50.184;18.966;2024-02-26T13:23:04;0.10;;;0.10;;
57889;SDS011;43707;50.184;18.966;2024-02-26T13:25:30;0.30;;;0.30;;
57889;SDS011;43707;50.184;18.966;2024-02-26T13:28:09;0.10;;;0.10;;
57889;SDS011;43707;50.184;18.966;2024-02-26T13:30:42;0.10;;;0.10;;
57889;SDS011;43707;50.184;18.966;2024-02-26T13:33:15;0.20;;;0.20;;
57889;SDS011;43707;50.184;18.966;2024-02-26T13:35:40;0.10;;;0.10;;
57889;SDS011;43707;50.184;18.966;2024-02-26T13:38:06;0.30;;;0.20;;
57889;SDS011;43707;50.184;18.966;2024-02-26T13:40:32;0.10;;;0.10;;
57889;SDS011;43707;50.184;18.966;2024-02-26T13:42:57;0.20;;;0.20;;
57889;SDS011;43707;50.184;18.966;2024-02-26T13:45:23;0.10;;;0.10;;
57889;SDS011;43707;50.184;18.966;2024-02-26T13:47:48;0.20;;;0.20;;
57889;SDS011;43707;50.184;18.966;2024-02-26T13:50:14;0.30;;;0.20;;
57889;SDS011;43707;50.184;18.966;2024-02-26T13:52:40;0.30;;;0.20;;
57889;SDS011;43707;50.184;18.966;2024-02-26T13:55:06;0.50;;;0.10;;
57889;SDS011;43707;50.184;18.966;2024-02-26T13:57:32;0.10;;;0.10;;
57889;SDS011;43707;50.184;18.966;2024-02-26T13:59:58;0.30;;;0.30;;
57889;SDS011;43707;50.184;18.966;2024-02-26T14:02:24;0.30;;;0.20;;
57889;SDS011;43707;50.184;18.966;2024-02-26T14:04:49;0.10;;;0.10;;
57889;SDS011;43707;50.184;18.966;2024-02-26T14:07:14;0.10;;;0.10;;
57889;SDS011;43707;50.184;18.966;2024-02-26T14:09:42;0.20;;;0.20;;
57889;SDS011;43707;50.184;18.966;2024-02-26T14:12:08;0.20;;;0.20;;
57889;SDS011;43707;50.184;18.966;2024-02-26T14:14:34;0.20;;;0.20;;
57889;SDS011;43707;50.184;18.966;2024-02-26T14:17:03;0.20;;;0.20;;
57889;SDS011;43707;50.184;18.966;2024-02-26T14:19:29;0.40;;;0.40;;
57889;SDS011;43707;50.184;18.966;2024-02-26T14:21:54;0.40;;;0.40;;
57889;SDS011;43707;50.184;18.966;2024-02-26T14:24:20;0.50;;;0.30;;
57889;SDS011;43707;50.184;18.966;2024-02-26T14:26:45;0.90;;;0.50;;
57889;SDS011;43707;50.184;18.966;2024-02-26T14:29:11;0.40;;;0.30;;
57889;SDS011;43707;50.184;18.966;2024-02-26T14:31:36;1.00;;;0.60;;
57889;SDS011;43707;50.184;18.966;2024-02-26T14:34:02;0.80;;;0.40;;
57889;SDS011;43707;50.184;18.966;2024-02-26T14:36:27;0.60;;;0.40;;
57889;SDS011;43707;50.184;18.966;2024-02-26T14:38:54;0.40;;;0.40;;
57889;SDS011;43707;50.184;18.966;2024-02-26T14:41:20;0.50;;;0.30;;